Time;durP1;ratioP1;P1;durP2;ratioP2;P2;SDS_P1;SDS_P2;PMS_P1;PMS_P2;Temp;Humidity;BMP_temperature;BMP_pressure;BME280_temperature;BME280_humidity;BME280_pressure;Samples;Min_cycle;Max_cycle;Signal;HPM_P1;HPM_P2
2022/11/16 00:02:21;;;;;;;46.40;31.58;;;8.50;99.90;;;;;;5115041;28;20223;-87
2022/11/16 00:04:50;;;;;;;54.63;35.10;;;8.50;99.90;;;;;;5101656;28;20242;-80
2022/11/16 00:07:17;;;;;;;44.70;30.20;;;8.40;99.90;;;;;;5103197;28;20641;-86
2022/11/16 00:09:44;;;;;;;39.42;31.55;;;8.40;99.90;;;;;;5107218;28;20649;-79
2022/11/16 00:12:11;;;;;;;42.08;29.40;;;8.40;99.90;;;;;;5105344;28;20745;-79
2022/11/16 00:14:38;;;;;;;37.40;30.55;;;8.40;99.90;;;;;;5111950;28;20579;-86
2022/11/16 00:17:11;;;;;;;38.50;29.13;;;8.50;99.90;;;;;;5101891;28;20215;-79
2022/11/16 00:19:38;;;;;;;43.30;31.55;;;8.50;99.90;;;;;;5107327;28;20251;-86
2022/11/16 00:22:05;;;;;;;50.00;33.45;;;8.50;99.90;;;;;;5106602;28;20613;-87
2022/11/16 00:24:33;;;;;;;45.95;33.47;;;8.60;99.90;;;;;;5101413;28;20226;-87
2022/11/16 00:27:00;;;;;;;43.60;31.15;;;8.60;99.90;;;;;;5102952;28;20230;-86
2022/11/16 00:29:27;;;;;;;44.83;30.90;;;8.60;99.90;;;;;;5106011;28;20674;-86
2022/11/16 00:31:55;;;;;;;43.50;30.23;;;8.50;99.90;;;;;;5104671;28;20230;-79
2022/11/16 00:34:26;;;;;;;43.75;29.95;;;8.60;99.90;;;;;;5100763;28;20218;-86
2022/11/16 00:39:37;;;;;;;46.72;29.35;;;8.50;99.90;;;;;;5102882;28;20274;-78
2022/11/16 00:42:04;;;;;;;41.00;29.00;;;8.50;99.90;;;;;;5105999;28;20511;-78
2022/11/16 00:44:31;;;;;;;42.72;30.88;;;8.40;99.90;;;;;;5094724;28;20291;-87
2022/11/16 00:46:58;;;;;;;46.20;29.70;;;8.40;99.90;;;;;;5120266;28;20403;-86
2022/11/16 00:49:26;;;;;;;38.90;25.83;;;8.40;99.90;;;;;;5111375;28;20265;-86
2022/11/16 00:52:12;;;;;;;38.80;26.25;;;8.40;99.90;;;;;;5108150;28;20219;-79
2022/11/16 00:54:39;;;;;;;37.53;28.15;;;8.30;99.90;;;;;;5107533;28;20303;-79
2022/11/16 00:57:06;;;;;;;41.83;28.67;;;8.20;99.90;;;;;;5094602;28;20232;-79
2022/11/16 00:59:33;;;;;;;40.85;27.35;;;8.20;99.90;;;;;;5107144;28;20215;-79
2022/11/16 01:02:00;;;;;;;38.67;30.63;;;8.20;99.90;;;;;;5103946;28;20254;-87
2022/11/16 01:04:29;;;;;;;41.53;27.88;;;8.20;99.90;;;;;;5097951;28;20220;-87
2022/11/16 01:06:56;;;;;;;35.45;26.63;;;8.20;99.90;;;;;;5095036;28;20582;-87
2022/11/16 01:09:23;;;;;;;41.67;27.63;;;8.20;99.90;;;;;;5109701;28;20228;-86
2022/11/16 01:14:35;;;;;;;38.42;26.77;;;8.20;99.90;;;;;;5106897;28;20264;-88
2022/11/16 01:17:04;;;;;;;44.25;31.50;;;8.20;99.90;;;;;;5110517;28;20280;-87
2022/11/16 01:19:32;;;;;;;39.92;28.83;;;8.20;99.90;;;;;;5109932;28;20223;-80
2022/11/16 01:21:59;;;;;;;39.22;29.63;;;8.20;99.90;;;;;;5106422;28;20214;-79
2022/11/16 01:27:15;;;;;;;32.28;24.13;;;8.30;99.90;;;;;;5105988;28;20320;-87
2022/11/16 01:29:42;;;;;;;36.70;27.58;;;8.30;99.90;;;;;;5113011;28;20291;-86
2022/11/16 01:32:09;;;;;;;36.22;27.13;;;8.30;99.90;;;;;;5117646;28;20224;-86
2022/11/16 01:34:38;;;;;;;37.53;26.33;;;8.40;99.90;;;;;;5108575;28;20231;-86
2022/11/16 01:37:06;;;;;;;37.95;26.88;;;8.40;99.90;;;;;;5106111;28;20219;-79
2022/11/16 01:39:33;;;;;;;42.78;27.35;;;8.40;99.90;;;;;;5090905;28;20233;-79
2022/11/16 01:42:00;;;;;;;38.90;26.25;;;8.40;99.90;;;;;;5105869;28;20557;-79
2022/11/16 01:44:57;;;;;;;35.08;25.27;;;8.40;99.90;;;;;;5119592;28;20252;-81
2022/11/16 01:47:25;;;;;;;38.72;29.17;;;8.50;99.90;;;;;;5112028;28;20218;-80
2022/11/16 01:49:56;;;;;;;33.60;26.85;;;8.40;99.90;;;;;;5104712;28;20721;-80
2022/11/16 01:52:29;;;;;;;37.90;26.77;;;8.40;99.90;;;;;;5104037;28;20220;-86
2022/11/16 01:54:56;;;;;;;32.40;26.67;;;8.40;99.90;;;;;;5106595;28;20219;-87
2022/11/16 01:57:30;;;;;;;37.88;28.20;;;8.40;99.90;;;;;;5107077;28;20659;-87
2022/11/16 01:59:59;;;;;;;44.63;28.58;;;8.40;99.90;;;;;;5106158;28;20272;-79
2022/11/16 02:02:29;;;;;;;38.35;28.17;;;8.40;99.90;;;;;;5097997;28;20347;-86
2022/11/16 02:04:59;;;;;;;40.28;28.75;;;8.40;99.90;;;;;;5108621;28;20223;-79
2022/11/16 02:09:52;;;;;;;39.35;28.73;;;8.40;99.90;;;;;;5108139;28;20227;-79
2022/11/16 02:10:38;;;;;;;40.13;26.55;;;8.40;99.90;;;;;;5098904;28;20258;-80
2022/11/16 02:13:19;;;;;;;34.22;25.75;;;8.40;99.90;;;;;;5100062;28;20676;-87
2022/11/16 02:15:51;;;;;;;36.30;25.58;;;8.40;99.90;;;;;;5104138;28;20226;-80
2022/11/16 02:18:27;;;;;;;34.95;25.88;;;8.40;99.90;;;;;;5108820;28;20215;-87
2022/11/16 02:21:21;;;;;;;33.35;25.50;;;8.30;99.90;;;;;;5107474;28;20223;-88
2022/11/16 02:24:55;;;;;;;35.42;24.05;;;8.30;99.90;;;;;;5105412;28;20234;-79
2022/11/16 02:27:50;;;;;;;35.30;24.65;;;8.30;99.90;;;;;;5106500;28;20227;-87
2022/11/16 02:30:20;;;;;;;38.25;25.13;;;8.20;99.90;;;;;;5100575;28;20223;-79
2022/11/16 02:32:52;;;;;;;39.60;27.13;;;8.20;99.90;;;;;;5097799;28;20227;-87
2022/11/16 02:35:25;;;;;;;40.30;26.63;;;8.20;99.90;;;;;;5102106;28;20219;-79
2022/11/16 02:37:56;;;;;;;38.47;25.45;;;8.20;99.90;;;;;;5097594;28;20223;-79
2022/11/16 02:40:26;;;;;;;39.58;26.70;;;8.10;99.90;;;;;;5097838;28;20313;-79
2022/11/16 02:43:00;;;;;;;37.03;25.75;;;8.10;99.90;;;;;;5098073;28;20258;-79
2022/11/16 02:45:32;;;;;;;36.10;25.85;;;8.10;99.90;;;;;;5103664;28;20218;-79
2022/11/16 02:48:05;;;;;;;34.50;24.83;;;8.10;99.90;;;;;;5105117;28;20223;-79
2022/11/16 02:50:34;;;;;;;38.80;26.70;;;8.10;99.90;;;;;;5106693;28;20238;-87
2022/11/16 02:53:01;;;;;;;39.95;27.65;;;8.10;99.90;;;;;;5106197;28;20215;-87
2022/11/16 02:55:30;;;;;;;43.70;27.20;;;8.00;99.90;;;;;;5109708;28;20223;-87
2022/11/16 02:58:01;;;;;;;38.25;27.85;;;8.00;99.90;;;;;;5099969;28;20227;-79
2022/11/16 03:00:34;;;;;;;41.15;29.10;;;7.90;99.90;;;;;;5094414;28;20280;-87
2022/11/16 03:03:15;;;;;;;38.65;28.23;;;7.90;99.90;;;;;;5109841;28;20227;-87
2022/11/16 03:05:47;;;;;;;40.03;26.33;;;7.90;99.90;;;;;;5093017;28;20658;-87
2022/11/16 03:08:21;;;;;;;42.38;29.38;;;8.00;99.90;;;;;;5106027;28;20234;-79
2022/11/16 03:13:38;;;;;;;43.28;28.83;;;7.80;99.90;;;;;;5110812;28;20284;-79
2022/11/16 03:16:11;;;;;;;48.85;29.25;;;7.80;99.90;;;;;;5107187;28;20225;-79
2022/11/16 03:18:42;;;;;;;49.80;29.85;;;7.80;99.90;;;;;;5111125;28;20227;-79
2022/11/16 03:21:16;;;;;;;43.75;28.08;;;7.70;99.90;;;;;;5113725;28;20227;-87
2022/11/16 03:23:46;;;;;;;46.17;29.30;;;7.70;99.90;;;;;;5111443;28;20245;-79
2022/11/16 03:26:19;;;;;;;46.15;28.92;;;7.60;99.90;;;;;;5115734;28;20219;-87
2022/11/16 03:28:52;;;;;;;44.58;29.48;;;7.60;99.90;;;;;;5115908;28;20215;-87
2022/11/16 03:31:27;;;;;;;46.00;29.10;;;7.60;99.90;;;;;;5114367;28;20223;-86
2022/11/16 03:33:56;;;;;;;38.58;26.00;;;7.60;99.90;;;;;;5111030;28;20241;-79
2022/11/16 03:36:32;;;;;;;45.38;29.23;;;7.70;99.90;;;;;;5101228;28;20212;-84
2022/11/16 03:39:07;;;;;;;42.67;27.33;;;7.70;99.90;;;;;;5114223;28;20219;-79
2022/11/16 03:41:37;;;;;;;40.15;28.10;;;7.80;99.90;;;;;;5112756;28;20220;-86
2022/11/16 03:44:08;;;;;;;43.13;29.10;;;7.80;99.90;;;;;;5111833;28;20223;-79
2022/11/16 03:46:39;;;;;;;42.70;29.65;;;7.90;99.90;;;;;;5115886;28;20279;-87
2022/11/16 03:49:06;;;;;;;44.40;31.27;;;7.90;99.90;;;;;;5113353;28;20287;-79
2022/11/16 03:51:34;;;;;;;42.15;29.17;;;7.90;99.90;;;;;;5114998;28;20265;-79
2022/11/16 03:54:01;;;;;;;42.45;29.48;;;7.90;99.90;;;;;;5110778;28;20543;-80
2022/11/16 03:56:29;;;;;;;45.88;30.30;;;7.90;99.90;;;;;;5107863;28;20219;-82
2022/11/16 03:58:57;;;;;;;39.22;28.33;;;8.00;99.90;;;;;;5109742;28;20741;-87
2022/11/16 04:01:27;;;;;;;42.40;30.90;;;8.00;99.90;;;;;;5103715;28;20329;-80
2022/11/16 04:03:56;;;;;;;42.45;30.95;;;8.00;99.90;;;;;;5093911;28;20220;-80
2022/11/16 04:25:47;;;;;;;51.63;32.72;;;8.00;99.90;;;;;;5101601;28;20339;-80
2022/11/16 04:28:15;;;;;;;52.53;35.03;;;8.00;99.90;;;;;;5107479;28;20223;-79
2022/11/16 04:39:04;;;;;;;51.03;32.20;;;7.90;99.90;;;;;;5108756;28;20292;-87
2022/11/16 04:44:23;;;;;;;54.42;35.05;;;7.80;99.90;;;;;;5113354;28;20233;-86
2022/11/16 04:47:07;;;;;;;63.10;33.65;;;7.90;99.90;;;;;;5100864;28;20673;-79
2022/11/16 04:49:34;;;;;;;52.67;33.10;;;7.90;99.90;;;;;;5108690;28;20219;-87
2022/11/16 04:52:03;;;;;;;57.50;33.17;;;8.00;99.90;;;;;;5105544;28;20235;-87
2022/11/16 04:54:31;;;;;;;56.47;33.55;;;8.10;99.90;;;;;;5105698;28;20222;-86
2022/11/16 04:56:58;;;;;;;51.90;33.95;;;8.00;99.90;;;;;;5098237;28;20315;-87
2022/11/16 04:59:26;;;;;;;55.92;34.05;;;8.10;99.90;;;;;;5095724;28;20231;-79
2022/11/16 05:02:08;;;;;;;54.63;32.67;;;8.10;99.90;;;;;;5094790;28;20219;-87
2022/11/16 05:04:36;;;;;;;54.78;32.15;;;8.20;99.90;;;;;;5094529;28;20265;-79
2022/11/16 05:07:09;;;;;;;64.10;32.58;;;8.30;99.90;;;;;;5095207;28;20296;-87
2022/11/16 05:09:41;;;;;;;62.22;34.03;;;8.30;99.90;;;;;;5094813;28;20219;-87
2022/11/16 05:12:09;;;;;;;62.72;36.33;;;8.20;99.90;;;;;;5094915;28;20640;-87
2022/11/16 05:14:38;;;;;;;67.25;34.45;;;8.20;99.90;;;;;;5093890;28;20226;-87
2022/11/16 05:17:08;;;;;;;58.47;33.78;;;8.20;99.90;;;;;;5094388;28;20223;-79
2022/11/16 05:22:21;;;;;;;63.53;33.58;;;8.20;99.90;;;;;;5094379;28;20300;-87
2022/11/16 05:24:48;;;;;;;54.20;32.90;;;8.10;99.90;;;;;;5093830;28;20235;-79
2022/11/16 05:27:17;;;;;;;59.92;32.38;;;8.20;99.90;;;;;;5092791;28;20242;-80
2022/11/16 05:29:44;;;;;;;53.03;33.83;;;8.20;99.90;;;;;;5094137;28;20234;-79
2022/11/16 05:32:13;;;;;;;54.38;33.08;;;8.20;99.90;;;;;;5093991;28;20223;-86
2022/11/16 05:34:40;;;;;;;62.40;33.13;;;8.30;99.90;;;;;;5094945;28;20242;-87
2022/11/16 05:37:07;;;;;;;55.03;32.50;;;8.30;99.90;;;;;;5094527;28;20242;-79
2022/11/16 05:39:36;;;;;;;54.20;33.05;;;8.40;99.90;;;;;;5093003;28;20599;-79
2022/11/16 05:42:03;;;;;;;60.08;34.75;;;8.40;99.90;;;;;;5093464;28;20293;-79
2022/11/16 05:44:30;;;;;;;61.30;35.53;;;8.30;99.90;;;;;;5092220;28;20566;-79
2022/11/16 05:46:58;;;;;;;53.95;33.75;;;8.40;99.90;;;;;;5093666;28;20216;-79
2022/11/16 05:49:25;;;;;;;62.78;34.63;;;8.50;99.90;;;;;;5092595;28;20238;-87
2022/11/16 05:51:52;;;;;;;63.80;33.97;;;8.60;99.90;;;;;;5093563;28;20227;-86
2022/11/16 05:54:20;;;;;;;63.25;37.15;;;8.60;99.90;;;;;;5094079;28;20223;-86
2022/11/16 05:56:49;;;;;;;71.20;33.83;;;8.60;99.90;;;;;;5095453;28;20226;-86
2022/11/16 05:59:19;;;;;;;63.08;34.03;;;8.60;99.90;;;;;;5094007;28;20223;-86
2022/11/16 06:01:47;;;;;;;63.55;36.35;;;8.60;99.90;;;;;;5094072;28;20555;-79
2022/11/16 06:04:15;;;;;;;62.35;36.78;;;8.70;99.90;;;;;;5092185;28;20223;-79
2022/11/16 06:06:42;;;;;;;58.58;31.75;;;8.60;99.90;;;;;;5093579;28;20554;-79
2022/11/16 06:09:10;;;;;;;66.15;34.13;;;8.70;99.90;;;;;;5092376;28;20227;-80
2022/11/16 06:11:37;;;;;;;63.72;36.28;;;8.70;99.90;;;;;;5092828;28;20242;-79
2022/11/16 06:14:06;;;;;;;65.93;34.85;;;8.70;99.90;;;;;;5095835;28;20242;-87
2022/11/16 06:16:33;;;;;;;63.42;36.65;;;8.70;99.90;;;;;;5096232;28;20231;-86
2022/11/16 06:19:01;;;;;;;59.47;32.63;;;8.70;99.90;;;;;;5096965;28;20231;-86
2022/11/16 06:21:28;;;;;;;69.68;36.17;;;8.80;99.90;;;;;;5099902;28;20223;-87
2022/11/16 06:23:55;;;;;;;64.40;34.13;;;8.80;99.90;;;;;;5098567;28;20287;-80
2022/11/16 06:26:22;;;;;;;63.08;33.33;;;8.90;99.90;;;;;;5095909;28;20310;-80
2022/11/16 06:28:53;;;;;;;67.32;35.75;;;8.90;99.90;;;;;;5100505;28;20212;-80
2022/11/16 06:31:22;;;;;;;67.75;35.55;;;8.90;99.90;;;;;;5087247;28;20262;-80
2022/11/16 06:33:50;;;;;;;63.13;35.58;;;8.90;99.90;;;;;;5096990;28;20224;-87
2022/11/16 06:36:17;;;;;;;67.97;36.15;;;8.90;99.90;;;;;;5094728;28;20223;-88
2022/11/16 06:38:48;;;;;;;73.68;37.70;;;8.90;99.90;;;;;;5097067;28;20253;-86
2022/11/16 06:41:15;;;;;;;61.03;37.25;;;8.90;99.90;;;;;;5097608;28;20280;-86
2022/11/16 06:43:43;;;;;;;57.97;33.78;;;9.00;99.90;;;;;;5098511;28;20231;-87
2022/11/16 06:46:10;;;;;;;66.57;36.60;;;8.90;99.90;;;;;;5098383;28;20223;-79
2022/11/16 06:48:38;;;;;;;62.67;36.40;;;8.90;99.90;;;;;;5097720;28;20215;-86
2022/11/16 06:51:06;;;;;;;67.88;36.90;;;8.90;99.90;;;;;;5095607;28;20235;-80
2022/11/16 06:53:33;;;;;;;59.58;34.60;;;8.90;99.90;;;;;;5095491;28;20230;-79
2022/11/16 06:56:04;;;;;;;67.90;37.05;;;8.90;99.90;;;;;;5096992;28;20227;-87
2022/11/16 06:58:32;;;;;;;66.88;35.00;;;8.90;99.90;;;;;;5096925;28;20222;-87
2022/11/16 07:01:06;;;;;;;68.53;36.97;;;8.80;99.90;;;;;;5097449;28;20680;-87
2022/11/16 07:03:33;;;;;;;66.50;34.55;;;8.80;99.90;;;;;;5096139;28;20234;-87
2022/11/16 07:06:06;;;;;;;68.03;36.15;;;8.80;99.90;;;;;;5096193;28;20272;-79
2022/11/16 07:08:33;;;;;;;57.58;33.97;;;8.80;99.90;;;;;;5095667;28;20268;-86
2022/11/16 07:11:04;;;;;;;61.17;33.58;;;8.80;99.90;;;;;;5098673;28;20630;-85
2022/11/16 07:13:32;;;;;;;67.07;36.80;;;8.80;99.90;;;;;;5098875;28;20286;-85
2022/11/16 07:16:04;;;;;;;71.53;35.15;;;8.80;99.90;;;;;;5098552;28;20342;-79
2022/11/16 07:18:37;;;;;;;68.57;34.85;;;8.90;99.90;;;;;;5096803;28;20223;-79
2022/11/16 07:21:11;;;;;;;70.95;37.03;;;8.80;99.90;;;;;;5097972;28;20561;-86
2022/11/16 07:23:38;;;;;;;58.05;32.40;;;8.90;99.90;;;;;;5098148;28;20247;-87
2022/11/16 07:26:14;;;;;;;67.47;35.83;;;8.90;99.90;;;;;;5097664;28;20525;-87
2022/11/16 07:28:43;;;;;;;62.97;35.65;;;8.90;99.90;;;;;;5096625;28;20227;-87
2022/11/16 07:37:36;;;;;;;72.65;38.38;;;8.80;99.90;;;;;;5095684;28;20207;-86
2022/11/16 07:40:09;;;;;;;80.78;40.20;;;8.80;99.90;;;;;;5099095;28;20289;-79
2022/11/16 07:42:37;;;;;;;75.35;38.97;;;8.80;99.90;;;;;;5085100;28;20608;-87
2022/11/16 07:45:16;;;;;;;69.63;36.72;;;8.80;99.90;;;;;;5097380;28;20231;-86
2022/11/16 07:47:56;;;;;;;;;;;;;;;;;;;;;
2022/11/16 07:50:23;;;;;;;71.00;35.72;;;8.70;99.90;;;;;;5096223;28;20318;-87
2022/11/16 07:52:52;;;;;;;79.00;34.97;;;8.60;99.90;;;;;;5097399;28;20215;-87
2022/11/16 07:55:42;;;;;;;68.57;36.33;;;8.60;99.90;;;;;;5096863;28;20219;-86
2022/11/16 07:58:09;;;;;;;71.55;34.90;;;8.70;99.90;;;;;;5097507;28;20230;-87
2022/11/16 08:00:37;;;;;;;69.13;38.00;;;8.70;99.90;;;;;;5095947;28;20607;-86
2022/11/16 08:03:05;;;;;;;64.93;34.15;;;8.60;99.90;;;;;;5097867;28;20231;-87
2022/11/16 08:05:32;;;;;;;74.20;36.00;;;8.70;99.90;;;;;;5086936;28;20257;-87
2022/11/16 08:08:01;;;;;;;71.47;36.42;;;8.70;99.90;;;;;;5102100;28;20223;-87
2022/11/16 08:10:33;;;;;;;67.60;35.90;;;8.80;99.90;;;;;;5100046;28;20227;-87
2022/11/16 08:13:00;;;;;;;68.85;37.42;;;8.70;99.90;;;;;;5097377;28;20238;-87
2022/11/16 08:15:27;;;;;;;70.80;36.65;;;8.80;99.90;;;;;;5098919;28;20219;-88
2022/11/16 08:17:54;;;;;;;66.50;33.70;;;8.80;99.90;;;;;;5090091;28;20227;-88
2022/11/16 08:20:33;;;;;;;63.42;35.63;;;8.90;99.90;;;;;;5097233;28;20249;-88
2022/11/16 08:23:02;;;;;;;67.60;33.50;;;8.90;99.90;;;;;;5095572;28;20220;-88
2022/11/16 08:28:15;;;;;;;66.53;36.08;;;8.80;99.90;;;;;;5081444;28;20230;-87
2022/11/16 08:30:43;;;;;;;66.43;33.42;;;8.80;99.90;;;;;;5097807;28;20668;-87
2022/11/16 08:36:15;;;;;;;;;;;;;;;;;;;;;
2022/11/16 08:38:47;;;;;;;60.90;32.03;;;8.80;99.90;;;;;;5094415;28;20227;-86
2022/11/16 08:41:23;;;;;;;63.65;31.20;;;8.80;99.90;;;;;;5094074;28;20254;-86
2022/11/16 08:43:52;;;;;;;56.60;32.30;;;8.80;99.90;;;;;;5093743;28;20218;-86
2022/11/16 08:46:19;;;;;;;59.90;30.25;;;8.70;99.90;;;;;;5093561;28;20298;-87
2022/11/16 08:48:47;;;;;;;60.38;30.58;;;8.80;99.90;;;;;;5094491;28;20292;-86
2022/11/16 08:51:18;;;;;;;56.78;32.03;;;8.70;99.90;;;;;;5093293;28;20231;-86
2022/11/16 08:53:47;;;;;;;56.20;30.98;;;8.70;99.90;;;;;;5094063;28;20306;-86
2022/11/16 08:56:20;;;;;;;57.40;30.33;;;8.80;99.90;;;;;;5091835;28;20231;-79
2022/11/16 08:58:47;;;;;;;50.38;28.85;;;8.80;99.90;;;;;;5094247;28;20258;-86
2022/11/16 09:01:17;;;;;;;55.25;29.92;;;8.70;99.90;;;;;;5095388;28;20235;-87
2022/11/16 09:03:44;;;;;;;50.38;27.98;;;8.80;99.90;;;;;;5095512;28;20231;-87
2022/11/16 09:06:12;;;;;;;54.22;25.77;;;8.70;99.90;;;;;;5095263;28;20572;-87
2022/11/16 09:08:41;;;;;;;45.83;27.67;;;8.80;99.90;;;;;;5098120;28;20223;-87
2022/11/16 09:11:11;;;;;;;51.30;26.20;;;8.70;99.90;;;;;;5097782;28;20219;-87
2022/11/16 09:13:40;;;;;;;51.63;27.48;;;8.70;99.90;;;;;;5097103;28;20584;-87
2022/11/16 09:16:32;;;;;;;47.25;25.70;;;8.70;99.90;;;;;;5096034;28;20242;-87
2022/11/16 09:18:59;;;;;;;42.58;23.50;;;8.70;99.90;;;;;;5096511;28;20231;-87
2022/11/16 09:21:30;;;;;;;47.22;27.27;;;8.70;99.90;;;;;;5098558;28;20546;-87
2022/11/16 09:24:01;;;;;;;43.13;24.73;;;8.70;99.90;;;;;;5099969;28;20279;-86
2022/11/16 09:26:29;;;;;;;37.03;23.02;;;8.70;99.90;;;;;;5090002;28;20215;-79
2022/11/16 09:28:58;;;;;;;34.03;20.77;;;8.70;99.90;;;;;;5083113;28;20224;-79
2022/11/16 09:34:46;;;;;;;35.08;21.25;;;8.70;99.90;;;;;;5092103;28;20219;-79
2022/11/16 09:37:14;;;;;;;30.90;20.33;;;8.70;99.90;;;;;;5091972;28;20219;-79
2022/11/16 09:39:44;;;;;;;30.48;18.48;;;8.70;99.90;;;;;;5096077;28;20235;-86
2022/11/16 09:42:36;;;;;;;25.65;16.33;;;8.60;99.90;;;;;;5102624;28;20219;-85
2022/11/16 09:45:07;;;;;;;26.88;16.88;;;8.60;99.90;;;;;;5091790;28;20223;-79
2022/11/16 09:47:52;;;;;;;27.13;16.02;;;8.70;99.90;;;;;;5092880;28;20233;-80
2022/11/16 09:50:32;;;;;;;26.65;16.70;;;8.60;99.90;;;;;;5096688;28;20238;-85
2022/11/16 09:53:32;;;;;;;;;;;;;;;;;;;;;
2022/11/16 09:56:04;;;;;;;24.02;17.25;;;8.60;99.90;;;;;;5093415;28;20294;-86
2022/11/16 09:58:40;;;;;;;26.48;18.20;;;8.60;99.90;;;;;;5102636;28;20242;-85
2022/11/16 10:01:19;;;;;;;26.80;17.02;;;8.60;99.90;;;;;;5110855;28;20230;-86
2022/11/16 10:03:50;;;;;;;28.75;18.77;;;8.70;99.90;;;;;;5109857;28;20219;-86
2022/11/16 10:06:22;;;;;;;32.80;20.02;;;8.60;99.90;;;;;;5091802;28;20233;-78
2022/11/16 10:08:55;;;;;;;32.88;18.50;;;8.70;99.90;;;;;;5095687;28;20238;-79
2022/11/16 10:11:37;;;;;;;32.70;19.20;;;8.60;99.90;;;;;;5096417;28;20621;-81
2022/11/16 10:14:24;;;;;;;31.17;19.50;;;8.60;99.90;;;;;;5097952;28;20234;-85
2022/11/16 10:16:59;;;;;;;30.13;18.83;;;8.60;99.90;;;;;;5099755;28;20227;-86
2022/11/16 10:19:36;;;;;;;34.22;21.95;;;8.60;99.90;;;;;;5101764;28;20230;-86
2022/11/16 10:22:18;;;;;;;28.65;20.17;;;8.50;99.90;;;;;;5099431;28;20279;-83
2022/11/16 10:24:57;;;;;;;30.60;18.33;;;8.50;99.90;;;;;;5100446;28;20219;-79
2022/11/16 10:27:36;;;;;;;31.58;20.17;;;8.50;99.90;;;;;;5095913;28;20302;-78
2022/11/16 10:30:10;;;;;;;30.92;19.02;;;8.60;99.90;;;;;;5096305;28;20235;-78
2022/11/16 10:32:44;;;;;;;35.42;22.15;;;8.60;99.90;;;;;;5097143;28;20721;-79
2022/11/16 10:35:18;;;;;;;31.65;20.65;;;8.60;99.90;;;;;;5099804;28;20232;-79
2022/11/16 10:37:49;;;;;;;31.63;20.95;;;8.60;99.90;;;;;;5095480;28;20234;-78
2022/11/16 10:40:20;;;;;;;30.98;19.70;;;8.60;99.90;;;;;;5095974;28;20224;-78
2022/11/16 10:43:01;;;;;;;30.00;19.67;;;8.60;99.90;;;;;;5095414;28;20245;-79
2022/11/16 10:45:36;;;;;;;32.67;20.80;;;8.50;99.90;;;;;;5097196;28;20223;-86
2022/11/16 10:48:14;;;;;;;32.70;23.08;;;8.60;99.90;;;;;;5096343;28;20305;-85
2022/11/16 10:50:46;;;;;;;30.33;20.55;;;8.60;99.90;;;;;;5096905;28;20677;-86
2022/11/16 10:53:15;;;;;;;32.60;22.40;;;8.60;99.90;;;;;;5096852;28;20251;-85
2022/11/16 10:55:43;;;;;;;33.60;21.58;;;8.60;99.90;;;;;;5097092;28;20251;-85
2022/11/16 10:58:10;;;;;;;39.08;24.88;;;8.60;99.90;;;;;;5096575;28;20230;-79
2022/11/16 11:00:42;;;;;;;33.88;23.15;;;8.60;99.90;;;;;;5096005;28;20246;-79
2022/11/16 11:03:10;;;;;;;39.03;23.58;;;8.50;99.90;;;;;;5095119;28;20545;-78
2022/11/16 11:05:46;;;;;;;38.40;22.42;;;8.50;99.90;;;;;;5095468;28;20280;-85
2022/11/16 11:08:14;;;;;;;36.67;22.42;;;8.50;99.90;;;;;;5095873;28;20683;-85
2022/11/16 11:10:42;;;;;;;38.13;22.88;;;8.50;99.90;;;;;;5096333;28;20227;-85
2022/11/16 11:13:42;;;;;;;31.38;22.60;;;8.60;99.90;;;;;;5095856;28;20241;-85
2022/11/16 11:16:18;;;;;;;31.35;21.90;;;8.50;99.90;;;;;;5096514;28;20224;-86
2022/11/16 11:18:45;;;;;;;31.15;20.90;;;8.50;99.90;;;;;;5096550;28;20251;-85
2022/11/16 11:21:18;;;;;;;35.13;23.67;;;8.60;99.90;;;;;;5096227;28;20235;-85
2022/11/16 11:23:49;;;;;;;36.05;20.63;;;8.60;99.90;;;;;;5098876;28;20227;-86
2022/11/16 11:26:37;;;;;;;32.67;23.15;;;8.60;99.90;;;;;;5095266;28;20268;-85
2022/11/16 11:29:17;;;;;;;35.70;23.05;;;8.70;99.90;;;;;;5095686;28;20306;-85
2022/11/16 11:31:49;;;;;;;31.67;24.58;;;8.60;99.90;;;;;;5095802;28;20231;-88
2022/11/16 11:34:20;;;;;;;38.38;25.05;;;8.60;99.90;;;;;;5096179;28;20219;-85
2022/11/16 11:36:51;;;;;;;46.10;27.35;;;8.60;99.90;;;;;;5095259;28;20231;-86
2022/11/16 11:39:31;;;;;;;35.80;23.80;;;8.60;99.90;;;;;;5094640;28;20219;-78
2022/11/16 11:42:07;;;;;;;39.92;25.17;;;8.60;99.90;;;;;;5093408;28;20226;-78
2022/11/16 11:44:43;;;;;;;38.58;25.95;;;8.60;99.90;;;;;;5094788;28;20215;-78
2022/11/16 11:47:28;;;;;;;41.53;25.40;;;8.60;99.90;;;;;;5094617;28;20223;-85
2022/11/16 11:50:03;;;;;;;42.25;24.58;;;8.70;99.90;;;;;;5095080;28;20261;-86
2022/11/16 11:55:56;;;;;;;39.55;23.30;;;8.60;99.90;;;;;;5074520;28;20226;-80
2022/11/16 11:58:30;;;;;;;37.70;25.48;;;8.70;99.90;;;;;;5073993;28;20224;-79
2022/11/16 12:01:10;;;;;;;36.10;22.70;;;8.70;99.90;;;;;;5074344;28;20223;-78
2022/11/16 12:03:58;;;;;;;33.45;23.85;;;8.60;99.90;;;;;;5073747;28;20349;-78
2022/11/16 12:06:32;;;;;;;38.78;23.73;;;8.60;99.90;;;;;;5073004;28;20246;-79
2022/11/16 12:09:09;;;;;;;34.50;23.80;;;8.50;99.90;;;;;;5075041;28;20273;-79
2022/11/16 12:11:49;;;;;;;34.88;24.80;;;8.60;99.90;;;;;;5066872;28;20231;-86
2022/11/16 12:14:45;;;;;;;36.72;24.77;;;8.60;99.90;;;;;;5079712;28;20231;-87
2022/11/16 12:17:23;;;;;;;29.40;21.92;;;8.60;99.90;;;;;;5100479;28;20244;-79
2022/11/16 12:20:12;;;;;;;33.75;24.35;;;8.70;99.90;;;;;;5114464;28;20283;-79
2022/11/16 12:22:59;;;;;;;34.70;24.00;;;8.70;99.90;;;;;;5114747;28;20218;-86
2022/11/16 12:25:32;;;;;;;35.75;23.38;;;8.80;99.90;;;;;;5113701;28;20222;-79
2022/11/16 12:28:16;;;;;;;35.05;23.60;;;8.80;99.90;;;;;;5114392;28;20230;-86
2022/11/16 12:30:56;;;;;;;33.88;22.63;;;8.80;99.90;;;;;;5114274;28;20611;-87
2022/11/16 12:33:37;;;;;;;35.45;22.75;;;8.80;99.90;;;;;;5114717;28;20226;-86
2022/11/16 12:36:15;;;;;;;40.13;24.10;;;8.90;99.90;;;;;;5114130;28;20230;-86
2022/11/16 12:38:53;;;;;;;34.78;23.00;;;8.90;99.90;;;;;;5114640;28;20275;-86
2022/11/16 12:41:56;;;;;;;33.40;23.35;;;8.80;99.90;;;;;;5114075;28;20279;-79
2022/11/16 12:44:45;;;;;;;31.55;22.23;;;8.80;99.90;;;;;;5109904;27;20222;-86
2022/11/16 12:47:24;;;;;;;35.05;23.33;;;8.80;99.90;;;;;;5118173;28;20218;-86
2022/11/16 12:50:06;;;;;;;33.70;22.00;;;8.80;99.90;;;;;;5115959;28;20248;-86
2022/11/16 12:53:06;;;;;;;30.35;21.75;;;8.80;99.90;;;;;;5123199;28;20223;-86
2022/11/16 12:55:43;;;;;;;38.42;24.90;;;8.70;99.90;;;;;;5049274;28;20235;-86
2022/11/16 12:58:29;;;;;;;34.97;22.50;;;8.80;99.90;;;;;;5124594;28;20239;-86
2022/11/16 13:01:07;;;;;;;29.45;21.48;;;8.80;99.90;;;;;;5105713;28;20226;-86
2022/11/16 13:03:42;;;;;;;25.55;20.75;;;8.80;99.90;;;;;;5134706;28;20210;-86
2022/11/16 13:06:16;;;;;;;32.90;21.55;;;8.80;99.90;;;;;;5134845;28;20205;-85
2022/11/16 13:09:05;;;;;;;27.13;21.30;;;8.80;99.90;;;;;;5134043;28;20226;-86
2022/11/16 13:11:36;;;;;;;30.90;21.08;;;8.80;99.90;;;;;;5133198;27;20248;-85
2022/11/16 13:14:12;;;;;;;30.08;21.67;;;8.70;99.90;;;;;;5134721;28;20222;-85
2022/11/16 13:16:40;;;;;;;29.30;23.40;;;8.80;99.90;;;;;;5133056;28;20226;-85
2022/11/16 13:19:12;;;;;;;26.02;20.15;;;8.80;99.90;;;;;;5116639;28;20294;-86
2022/11/16 13:21:52;;;;;;;28.63;22.10;;;8.80;99.90;;;;;;5114983;28;20999;-86
2022/11/16 13:24:38;;;;;;;36.38;23.70;;;8.80;99.90;;;;;;5114455;27;20222;-78
2022/11/16 13:27:24;;;;;;;32.60;22.83;;;8.90;99.90;;;;;;5112668;28;20218;-79
2022/11/16 13:29:59;;;;;;;25.65;19.48;;;8.90;99.90;;;;;;5112288;28;20279;-78
2022/11/16 13:32:36;;;;;;;24.80;20.17;;;9.00;99.90;;;;;;5113813;28;20218;-86
2022/11/16 13:35:05;;;;;;;29.88;20.95;;;9.00;99.90;;;;;;5114000;28;20217;-85
2022/11/16 13:40:29;;;;;;;24.75;18.55;;;9.10;99.90;;;;;;5104546;28;20614;-84
2022/11/16 13:43:32;;;;;;;27.23;19.08;;;9.00;99.90;;;;;;5113160;28;20218;-78
2022/11/16 13:46:01;;;;;;;23.10;18.70;;;9.10;99.90;;;;;;5105773;28;20233;-79
2022/11/16 13:51:33;;;;;;;24.23;17.85;;;9.10;99.90;;;;;;5081039;22;20356;-78
2022/11/16 13:54:00;;;;;;;21.88;17.17;;;9.10;99.90;;;;;;5085760;28;20249;-78
2022/11/16 13:56:48;;;;;;;24.58;21.80;;;9.10;99.90;;;;;;5067782;28;20221;-79
2022/11/16 13:59:16;;;;;;;23.48;16.70;;;9.10;99.90;;;;;;5061258;28;20599;-79
2022/11/16 14:01:57;;;;;;;26.60;18.48;;;9.10;99.90;;;;;;5027211;28;20235;-80
2022/11/16 14:04:50;;;;;;;22.50;16.42;;;9.20;99.90;;;;;;5072232;28;20575;-79
2022/11/16 14:07:30;;;;;;;20.63;17.63;;;9.20;99.90;;;;;;5073056;28;20680;-85
2022/11/16 14:10:00;;;;;;;19.90;16.05;;;9.20;99.90;;;;;;5074030;28;20343;-84
2022/11/16 14:12:54;;;;;;;20.48;16.60;;;9.20;99.90;;;;;;5057125;28;20242;-86
2022/11/16 14:15:25;;;;;;;22.05;16.33;;;9.20;99.90;;;;;;5034597;28;20964;-85
2022/11/16 14:17:56;;;;;;;23.95;17.50;;;9.10;99.90;;;;;;5053760;28;20520;-85
2022/11/16 14:20:53;;;;;;;22.58;17.38;;;9.20;99.90;;;;;;5057173;28;20236;-84